Intangible — WDE9237 — position and weather

sailwx.info

Track history (hours):
 
Tides and Currents Weather Stations Pressure Air Temp Water Temp Dewpoint Dewpoint Depression Visibility Wind Speed Wind Dir Waves Ship Positions

Intangible

Owner: ROSVOLD, ERIC O, PETERSBURG, AK. More information available from US FCC via Universal Licensing System and Coast Guard Vessel Documentation Center.

Last reported at 2018-Jan-27 11:46 UTC. Time now 2018-Feb-24 00:19 UTC.
Position N 54°26' W 130°32'.
Warning: this ship's position is 27 days out of date.

Length 19 m.

Type: Fishing. MMSI: 367415050.

Date/timePositionNaut miles runAvg speedWind from/ knotsBaromVisibWave heightAir tempDewpointWater temp
2018-Jan-27 11:46N 54°26' W 130°32'3 8.6
2018-Jan-27 11:26N 54°23' W 130°33'4 8.8
2018-Jan-27 10:59N 54°19' W 130°34'4 8.7
2018-Jan-27 10:31N 54°16' W 130°30'4 8.6
2018-Jan-27 09:59N 54°12' W 130°25'4 8.3
2018-Jan-27 09:30N 54°09' W 130°21'4 8.6
2018-Jan-27 09:00N 54°05' W 130°17'4 8.7
2018-Jan-27 08:30N 54°01' W 130°14'4 8.6
2018-Jan-27 08:00N 53°57' W 130°12'4 8.2
2018-Jan-27 07:30N 53°54' W 130°08'121 7.5
2018-Jan-26 15:26N 52°14' W 128°14'4 8.0
2018-Jan-26 14:57N 52°12' W 128°08'3 6.9
2018-Jan-26 14:30N 52°09' W 128°08'4 8.1
2018-Jan-26 14:01N 52°05' W 128°06'6 8.1
2018-Jan-26 13:17N 52°04' W 127°57'2 7.2
2018-Jan-26 13:01N 52°02' W 127°56'4 8.5
2018-Jan-26 12:30N 51°58' W 127°55'4 8.3
2018-Jan-26 12:00N 51°54' W 127°55'4 8.6
2018-Jan-26 11:31N 51°50' W 127°55'4 8.5
2018-Jan-26 11:01N 51°45' W 127°54'4 8.5
2018-Jan-26 10:30N 51°41' W 127°54'4 8.6
2018-Jan-26 10:00N 51°37' W 127°53'5 8.5
2018-Jan-26 09:27N 51°32' W 127°52'5 8.2
2018-Jan-26 08:52N 51°27' W 127°51'6 8.1
2018-Jan-26 08:08N 51°21' W 127°51'9 8.0
2018-Jan-26 07:01N 51°12' W 127°50'1 7.9
2018-Jan-26 06:55N 51°12' W 127°49'4 8.2
2018-Jan-26 06:26N 51°08' W 127°46'4 8.5
2018-Jan-26 05:58N 51°05' W 127°42'4 8.6
2018-Jan-26 05:27N 51°02' W 127°37'4 8.5
2018-Jan-26 05:00N 50°59' W 127°33'4 8.1
2018-Jan-26 04:30N 50°57' W 127°28'4 7.7
2018-Jan-26 04:00N 50°54' W 127°23'4 8.1
2018-Jan-26 03:30N 50°52' W 127°18'4 8.1
2018-Jan-26 02:58N 50°50' W 127°12'75 8.6
2018-Jan-25 18:15N 50°18' W 125°25'4 7.9
2018-Jan-25 17:45N 50°14' W 125°23'2 7.5
2018-Jan-25 17:29N 50°13' W 125°22'3 7.0
2018-Jan-25 17:00N 50°09' W 125°21'2 4.0
2018-Jan-25 16:30N 50°07' W 125°20'3 6.6
2018-Jan-25 16:00N 50°05' W 125°17'3 5.2
2018-Jan-25 15:27N 50°02' W 125°14'2 4.6
2018-Jan-25 15:00N 50°01' W 125°13'4 6.3
2018-Jan-25 14:25N 49°58' W 125°09'3 7.5
2018-Jan-25 13:58N 49°55' W 125°06'4 7.5
2018-Jan-25 13:28N 49°53' W 125°01'4 7.8
2018-Jan-25 12:59N 49°50' W 124°57'4 7.9
2018-Jan-25 12:28N 49°47' W 124°53'4 7.8
2018-Jan-25 11:59N 49°45' W 124°49'4 7.8
2018-Jan-25 11:30N 49°42' W 124°44'65 7.9
2018-Jan-25 03:10N 49°05' W 123°22'1 8.3
2018-Jan-25 03:00N 49°04' W 123°20'10 8.3
2018-Jan-25 01:48N 48°57' W 123°08'5 7.8
2018-Jan-25 01:12N 48°54' W 123°03'5 7.7
2018-Jan-25 00:35N 48°51' W 122°58'18 6.3
2018-Jan-24 21:45N 48°44' W 122°33'3 0.4
2018-Jan-24 15:02N 48°45' W 122°30'0 0.0
2018-Jan-24 11:10N 48°45' W 122°30'0 0.0
2018-Jan-24 10:58N 48°45' W 122°30'0 0.0
2018-Jan-24 05:28N 48°45' W 122°30'0 0.0
2018-Jan-23 18:02N 48°45' W 122°30'0 0.0
2018-Jan-23 10:10N 48°45' W 122°30'0 0.0
2018-Jan-23 09:52N 48°45' W 122°30'0 0.0
2018-Jan-23 09:25N 48°45' W 122°30'0 0.0
2018-Jan-23 08:55N 48°45' W 122°30'0 0.0
2018-Jan-23 08:23N 48°45' W 122°30'0 0.0
2018-Jan-23 07:55N 48°45' W 122°30'0 0.0
2018-Jan-23 06:50N 48°45' W 122°30'0 0.0
2018-Jan-23 06:20N 48°45' W 122°30'0 0.0
2018-Jan-23 03:38N 48°45' W 122°30'0 0.0
2018-Jan-22 23:32N 48°45' W 122°30'0 0.0
2018-Jan-22 08:23N 48°45' W 122°30'0 0.0
2018-Jan-20 11:54N 48°45' W 122°30'0 0.0
2018-Jan-19 15:12N 48°45' W 122°30'0 0.0
2018-Jan-19 14:42N 48°45' W 122°30'0 0.0
2018-Jan-18 14:31N 48°45' W 122°30'0 0.0
2018-Jan-18 14:25N 48°45' W 122°30'0 0.0
2018-Jan-18 11:43N 48°45' W 122°30'0 0.0
2018-Jan-18 09:28N 48°45' W 122°30'0 0.0
2018-Jan-18 08:18N 48°45' W 122°30'0 0.0
2018-Jan-18 07:52N 48°45' W 122°30'0 0.0
2018-Jan-18 07:25N 48°45' W 122°30'0 0.0
2018-Jan-18 06:58N 48°45' W 122°30'0 0.0
2018-Jan-18 00:28N 48°45' W 122°30'  
Track history (hours):
 
Tides and Currents Weather Stations Pressure Air Temp Water Temp Dewpoint Dewpoint Depression Visibility Wind Speed Wind Dir Waves Ship Positions

Intangible

Owner: ROSVOLD, ERIC O, PETERSBURG, AK. More information available from US FCC via Universal Licensing System and Coast Guard Vessel Documentation Center.

Last reported at 2018-Jan-27 11:46 UTC. Time now 2018-Feb-24 00:19 UTC.
Position N 54°26' W 130°32'.
Warning: this ship's position is 27 days out of date.

Length 19 m.

Type: Fishing. MMSI: 367415050.

Date/timePositionNaut miles runAvg speedWind from/ knotsBaromVisibWave heightAir tempDewpointWater temp
2018-Jan-27 11:46N 54°26' W 130°32'3 8.6
2018-Jan-27 11:26N 54°23' W 130°33'4 8.8
2018-Jan-27 10:59N 54°19' W 130°34'4 8.7
2018-Jan-27 10:31N 54°16' W 130°30'4 8.6
2018-Jan-27 09:59N 54°12' W 130°25'4 8.3
2018-Jan-27 09:30N 54°09' W 130°21'4 8.6
2018-Jan-27 09:00N 54°05' W 130°17'4 8.7
2018-Jan-27 08:30N 54°01' W 130°14'4 8.6
2018-Jan-27 08:00N 53°57' W 130°12'4 8.2
2018-Jan-27 07:30N 53°54' W 130°08'121 7.5
2018-Jan-26 15:26N 52°14' W 128°14'4 8.0
2018-Jan-26 14:57N 52°12' W 128°08'3 6.9
2018-Jan-26 14:30N 52°09' W 128°08'4 8.1
2018-Jan-26 14:01N 52°05' W 128°06'6 8.1
2018-Jan-26 13:17N 52°04' W 127°57'2 7.2
2018-Jan-26 13:01N 52°02' W 127°56'4 8.5
2018-Jan-26 12:30N 51°58' W 127°55'4 8.3
2018-Jan-26 12:00N 51°54' W 127°55'4 8.6
2018-Jan-26 11:31N 51°50' W 127°55'4 8.5
2018-Jan-26 11:01N 51°45' W 127°54'4 8.5
2018-Jan-26 10:30N 51°41' W 127°54'4 8.6
2018-Jan-26 10:00N 51°37' W 127°53'5 8.5
2018-Jan-26 09:27N 51°32' W 127°52'5 8.2
2018-Jan-26 08:52N 51°27' W 127°51'6 8.1
2018-Jan-26 08:08N 51°21' W 127°51'9 8.0
2018-Jan-26 07:01N 51°12' W 127°50'1 7.9
2018-Jan-26 06:55N 51°12' W 127°49'4 8.2
2018-Jan-26 06:26N 51°08' W 127°46'4 8.5
2018-Jan-26 05:58N 51°05' W 127°42'4 8.6
2018-Jan-26 05:27N 51°02' W 127°37'4 8.5
2018-Jan-26 05:00N 50°59' W 127°33'4 8.1
2018-Jan-26 04:30N 50°57' W 127°28'4 7.7
2018-Jan-26 04:00N 50°54' W 127°23'4 8.1
2018-Jan-26 03:30N 50°52' W 127°18'4 8.1
2018-Jan-26 02:58N 50°50' W 127°12'75 8.6
2018-Jan-25 18:15N 50°18' W 125°25'4 7.9
2018-Jan-25 17:45N 50°14' W 125°23'2 7.5
2018-Jan-25 17:29N 50°13' W 125°22'3 7.0
2018-Jan-25 17:00N 50°09' W 125°21'2 4.0
2018-Jan-25 16:30N 50°07' W 125°20'3 6.6
2018-Jan-25 16:00N 50°05' W 125°17'3 5.2
2018-Jan-25 15:27N 50°02' W 125°14'2 4.6
2018-Jan-25 15:00N 50°01' W 125°13'4 6.3
2018-Jan-25 14:25N 49°58' W 125°09'3 7.5
2018-Jan-25 13:58N 49°55' W 125°06'4 7.5
2018-Jan-25 13:28N 49°53' W 125°01'4 7.8
2018-Jan-25 12:59N 49°50' W 124°57'4 7.9
2018-Jan-25 12:28N 49°47' W 124°53'4 7.8
2018-Jan-25 11:59N 49°45' W 124°49'4 7.8
2018-Jan-25 11:30N 49°42' W 124°44'65 7.9
2018-Jan-25 03:10N 49°05' W 123°22'1 8.3
2018-Jan-25 03:00N 49°04' W 123°20'10 8.3
2018-Jan-25 01:48N 48°57' W 123°08'5 7.8
2018-Jan-25 01:12N 48°54' W 123°03'5 7.7
2018-Jan-25 00:35N 48°51' W 122°58'18 6.3
2018-Jan-24 21:45N 48°44' W 122°33'3 0.4
2018-Jan-24 15:02N 48°45' W 122°30'0 0.0
2018-Jan-24 11:10N 48°45' W 122°30'0 0.0
2018-Jan-24 10:58N 48°45' W 122°30'0 0.0
2018-Jan-24 05:28N 48°45' W 122°30'0 0.0
2018-Jan-23 18:02N 48°45' W 122°30'0 0.0
2018-Jan-23 10:10N 48°45' W 122°30'0 0.0
2018-Jan-23 09:52N 48°45' W 122°30'0 0.0
2018-Jan-23 09:25N 48°45' W 122°30'0 0.0
2018-Jan-23 08:55N 48°45' W 122°30'0 0.0
2018-Jan-23 08:23N 48°45' W 122°30'0 0.0
2018-Jan-23 07:55N 48°45' W 122°30'0 0.0
2018-Jan-23 06:50N 48°45' W 122°30'0 0.0
2018-Jan-23 06:20N 48°45' W 122°30'0 0.0
2018-Jan-23 03:38N 48°45' W 122°30'0 0.0
2018-Jan-22 23:32N 48°45' W 122°30'0 0.0
2018-Jan-22 08:23N 48°45' W 122°30'0 0.0
2018-Jan-20 11:54N 48°45' W 122°30'0 0.0
2018-Jan-19 15:12N 48°45' W 122°30'0 0.0
2018-Jan-19 14:42N 48°45' W 122°30'0 0.0
2018-Jan-18 14:31N 48°45' W 122°30'0 0.0
2018-Jan-18 14:25N 48°45' W 122°30'0 0.0
2018-Jan-18 11:43N 48°45' W 122°30'0 0.0
2018-Jan-18 09:28N 48°45' W 122°30'0 0.0
2018-Jan-18 08:18N 48°45' W 122°30'0 0.0
2018-Jan-18 07:52N 48°45' W 122°30'0 0.0
2018-Jan-18 07:25N 48°45' W 122°30'0 0.0
2018-Jan-18 06:58N 48°45' W 122°30'0 0.0
2018-Jan-18 00:28N 48°45' W 122°30'  

Dump ship's entire track history